createdAt,value
2018-07-26T00:01:38.092Z,59.01
2018-07-26T00:04:08.373Z,59.55
2018-07-26T00:06:38.024Z,59.23
2018-07-26T00:09:11.569Z,58.29
2018-07-26T00:11:41.736Z,58.63
2018-07-26T00:14:11.533Z,59.92
2018-07-26T00:16:41.191Z,59.77
2018-07-26T00:19:10.835Z,59.03
2018-07-26T00:21:40.936Z,59.71
2018-07-26T00:24:10.773Z,59.44
2018-07-26T00:26:40.427Z,59.16
2018-07-26T00:29:10.669Z,59.83
2018-07-26T00:31:40.351Z,59.51
2018-07-26T00:34:10.006Z,60.21
2018-07-26T00:36:40.445Z,60.27
2018-07-26T00:39:11.798Z,59.92
2018-07-26T00:41:41.618Z,60.01
2018-07-26T00:44:11.330Z,60.12
2018-07-26T00:46:41.365Z,60.56
2018-07-26T00:49:11.058Z,60.68
2018-07-26T00:51:40.742Z,60.87
2018-07-26T00:54:10.390Z,61.31
2018-07-26T00:56:40.551Z,61.49
2018-07-26T00:59:10.265Z,61.68
2018-07-26T01:01:39.972Z,61.63
2018-07-26T01:04:09.589Z,61.79
2018-07-26T01:06:39.256Z,61.38
2018-07-26T01:09:11.523Z,61.32
2018-07-26T01:11:41.538Z,62.08
2018-07-26T01:14:11.176Z,61.46
2018-07-26T01:16:40.941Z,60.53
2018-07-26T01:19:10.618Z,60.86
2018-07-26T01:21:40.355Z,60.67
2018-07-26T01:24:10.315Z,60.96
2018-07-26T01:26:40.025Z,60.22
2018-07-26T01:29:10.045Z,61.06
2018-07-26T01:31:40.051Z,61.35
2018-07-26T01:34:09.691Z,61.38
2018-07-26T01:36:39.380Z,61.03
2018-07-26T01:39:11.809Z,61.86
2018-07-26T01:41:41.497Z,61.57
2018-07-26T01:44:24.233Z,61.63
2018-07-26T01:46:54.202Z,61.86
2018-07-26T01:49:24.030Z,62.39
2018-07-26T01:51:53.961Z,63.18
2018-07-26T01:54:23.592Z,62.71
2018-07-26T01:56:53.225Z,62.41
2018-07-26T01:59:22.865Z,63.14
2018-07-26T02:01:52.513Z,62.29
2018-07-26T02:04:22.095Z,63.00
2018-07-26T02:06:51.704Z,62.50
2018-07-26T02:09:21.368Z,62.14
2018-07-26T02:11:50.995Z,62.31
2018-07-26T02:14:26.013Z,63.34
2018-07-26T02:16:55.892Z,63.81
2018-07-26T02:19:25.543Z,64.23
2018-07-26T02:21:55.126Z,63.99
2018-07-26T02:24:24.776Z,64.17
2018-07-26T02:26:54.396Z,63.07
2018-07-26T02:29:24.026Z,63.35
2018-07-26T02:31:53.902Z,63.86
2018-07-26T02:34:23.518Z,63.54
2018-07-26T02:36:53.295Z,63.49
2018-07-26T02:39:23.388Z,63.91
2018-07-26T02:41:53.016Z,64.49
2018-07-26T02:44:23.013Z,64.78
2018-07-26T02:46:52.671Z,65.32
2018-07-26T02:49:22.266Z,65.24
2018-07-26T02:51:51.895Z,64.04
2018-07-26T02:54:21.540Z,63.72
2018-07-26T02:56:51.623Z,63.94
2018-07-26T02:59:21.371Z,64.74
2018-07-26T03:01:51.019Z,64.12
2018-07-26T03:04:20.707Z,65.63
2018-07-26T03:06:50.387Z,64.58
2018-07-26T03:09:20.006Z,65.25
2018-07-26T03:11:49.661Z,64.73
2018-07-26T03:14:19.355Z,63.11
2018-07-26T03:16:49.001Z,63.57
2018-07-26T03:19:18.688Z,63.39
2018-07-26T03:21:48.360Z,63.81
2018-07-26T03:24:18.045Z,65.07
2018-07-26T03:26:47.720Z,65.06
2018-07-26T03:29:17.756Z,64.87
2018-07-26T03:31:47.405Z,65.49
2018-07-26T03:34:17.054Z,66.47
2018-07-26T03:36:46.681Z,65.46
2018-07-26T03:39:16.290Z,65.54
2018-07-26T03:41:46.129Z,64.82
2018-07-26T03:44:16.009Z,65.34
2018-07-26T03:46:46.853Z,65.63
2018-07-26T03:49:16.594Z,65.41
2018-07-26T03:51:46.311Z,65.10
2018-07-26T03:54:16.244Z,65.69
2018-07-26T03:56:46.061Z,65.37
2018-07-26T03:59:15.816Z,64.30
2018-07-26T04:01:46.335Z,64.39
2018-07-26T04:04:16.408Z,64.77
2018-07-26T04:06:46.538Z,65.34
2018-07-26T04:09:16.637Z,66.05
2018-07-26T04:11:47.064Z,65.29
2018-07-26T04:14:16.823Z,65.61
2018-07-26T04:16:46.457Z,65.96
2018-07-26T04:19:16.225Z,66.43
2018-07-26T04:21:46.038Z,65.30
2018-07-26T04:24:15.661Z,65.85
2018-07-26T04:26:45.345Z,65.08
2018-07-26T04:29:15.265Z,65.77
2018-07-26T04:31:44.987Z,66.11
2018-07-26T04:34:14.855Z,66.90
2018-07-26T04:36:44.589Z,65.74
2018-07-26T04:39:14.407Z,66.58
2018-07-26T04:41:46.051Z,66.62
2018-07-26T04:44:15.712Z,65.73
2018-07-26T04:46:45.641Z,65.71
2018-07-26T04:49:16.619Z,64.68
2018-07-26T04:51:46.296Z,64.97
2018-07-26T04:54:15.965Z,63.99
2018-07-26T04:56:45.664Z,65.59
2018-07-26T04:59:15.465Z,66.02
2018-07-26T05:01:45.342Z,65.21
2018-07-26T05:04:14.957Z,65.82
2018-07-26T05:06:44.744Z,64.93
2018-07-26T05:09:14.709Z,65.11
2018-07-26T05:11:44.337Z,64.97
2018-07-26T05:14:14.123Z,64.14
2018-07-26T05:16:44.105Z,64.57
2018-07-26T05:19:13.904Z,64.66
2018-07-26T05:21:43.784Z,63.47
2018-07-26T05:24:13.503Z,63.69
2018-07-26T05:26:43.237Z,64.45
2018-07-26T05:29:12.886Z,64.29
2018-07-26T05:31:42.724Z,62.98
2018-07-26T05:36:57.658Z,63.17
2018-07-26T05:39:27.301Z,63.05
2018-07-26T05:41:56.954Z,62.95
2018-07-26T05:44:26.608Z,62.66
2018-07-26T05:46:56.222Z,62.45
2018-07-26T05:49:26.019Z,62.82
2018-07-26T05:51:56.093Z,62.48
2018-07-26T05:54:25.972Z,62.41
2018-07-26T05:56:55.608Z,62.47
2018-07-26T05:59:25.667Z,61.67
2018-07-26T06:01:55.453Z,62.13
2018-07-26T06:04:25.456Z,61.46
2018-07-26T06:06:55.144Z,61.99
2018-07-26T06:09:24.946Z,60.95
2018-07-26T06:11:55.061Z,60.52
2018-07-26T06:14:25.117Z,60.33
2018-07-26T06:16:55.148Z,60.03
2018-07-26T06:19:24.830Z,59.33
2018-07-26T06:21:54.542Z,58.58
2018-07-26T06:24:24.983Z,58.36
2018-07-26T06:26:54.915Z,57.17
2018-07-26T06:29:24.934Z,56.76
2018-07-26T06:31:54.874Z,55.91
2018-07-26T06:34:24.595Z,55.31
2018-07-26T06:36:54.302Z,54.52
2018-07-26T06:39:24.055Z,53.67
2018-07-26T06:41:56.435Z,52.16
2018-07-26T06:44:26.129Z,51.14
2018-07-26T06:46:56.204Z,50.40
2018-07-26T06:49:26.388Z,47.82
2018-07-26T06:51:56.056Z,47.35
2018-07-26T06:54:25.797Z,46.87
2018-07-26T06:56:55.392Z,46.00
2018-07-26T06:59:25.047Z,46.38
2018-07-26T07:01:55.599Z,46.04
2018-07-26T07:04:25.324Z,45.82
2018-07-26T07:06:55.433Z,45.11
2018-07-26T07:09:25.153Z,43.24
2018-07-26T07:11:54.888Z,44.42
2018-07-26T07:14:24.734Z,43.11
2018-07-26T07:16:54.718Z,43.25
2018-07-26T07:19:26.380Z,42.40
2018-07-26T07:21:56.323Z,41.78
2018-07-26T07:24:25.972Z,41.68
2018-07-26T07:26:55.780Z,41.31
2018-07-26T07:29:26.229Z,41.24
2018-07-26T07:32:00.710Z,40.18
2018-07-26T07:34:30.307Z,39.34
2018-07-26T07:36:59.931Z,38.41
2018-07-26T07:39:29.580Z,39.52
2018-07-26T07:42:00.002Z,38.52
2018-07-26T07:44:29.673Z,38.32
2018-07-26T07:46:59.321Z,38.34
2018-07-26T07:49:30.668Z,37.47
2018-07-26T07:52:00.297Z,38.78
2018-07-26T07:54:30.343Z,38.24
2018-07-26T07:57:00.361Z,36.94
2018-07-26T07:59:33.313Z,37.07
2018-07-26T08:02:04.200Z,36.97
2018-07-26T08:04:40.160Z,36.37
2018-07-26T08:07:10.846Z,36.15
2018-07-26T08:09:40.798Z,37.70
2018-07-26T08:12:13.412Z,36.95
2018-07-26T08:14:43.594Z,37.54
2018-07-26T08:17:14.544Z,38.31
2018-07-26T08:19:44.409Z,37.20
2018-07-26T08:22:15.048Z,37.91
2018-07-26T08:24:46.340Z,37.62
2018-07-26T08:27:20.605Z,36.39
2018-07-26T08:29:50.507Z,36.81
2018-07-26T08:32:28.425Z,37.30
2018-07-26T08:35:02.457Z,36.44
2018-07-26T08:37:32.487Z,37.07
2018-07-26T08:40:02.334Z,37.10
2018-07-26T08:42:32.247Z,34.63
2018-07-26T08:45:02.541Z,34.12
2018-07-26T08:47:32.266Z,34.80
2018-07-26T08:50:02.019Z,34.66
2018-07-26T08:52:31.813Z,34.32
2018-07-26T08:55:01.616Z,32.86
2018-07-26T08:57:38.466Z,33.86
2018-07-26T09:00:09.060Z,32.15
2018-07-26T09:02:38.780Z,31.96
2018-07-26T09:05:08.691Z,33.07
2018-07-26T09:07:38.636Z,32.79
2018-07-26T09:10:08.345Z,33.24
2018-07-26T09:12:38.659Z,31.54
2018-07-26T09:15:08.347Z,31.17
2018-07-26T09:17:37.985Z,31.68
2018-07-26T09:20:08.465Z,32.85
2018-07-26T09:22:38.370Z,32.66
2018-07-26T09:25:08.347Z,31.36
2018-07-26T09:27:37.978Z,31.80
2018-07-26T09:30:10.173Z,32.33
2018-07-26T09:32:40.633Z,31.60
2018-07-26T09:35:11.008Z,30.01
2018-07-26T09:37:40.766Z,29.28
2018-07-26T09:40:11.998Z,29.78
2018-07-26T09:42:43.352Z,28.14
2018-07-26T09:45:13.457Z,29.58
2018-07-26T09:47:43.192Z,27.54
2018-07-26T09:50:15.363Z,27.32
2018-07-26T09:52:45.123Z,26.54
2018-07-26T09:55:15.171Z,25.95
2018-07-26T09:57:45.330Z,26.08
2018-07-26T10:00:19.786Z,24.94
2018-07-26T10:02:50.590Z,24.27
2018-07-26T10:05:20.794Z,24.55
2018-07-26T10:07:50.571Z,24.85
2018-07-26T10:10:20.643Z,25.35
2018-07-26T10:12:50.397Z,25.07
2018-07-26T10:15:20.536Z,23.88
2018-07-26T10:17:50.463Z,24.58
2018-07-26T10:20:20.372Z,23.35
2018-07-26T10:22:52.517Z,24.17
2018-07-26T10:25:22.607Z,23.68
2018-07-26T10:27:52.765Z,22.77
2018-07-26T10:30:25.671Z,22.93
2018-07-26T10:32:55.633Z,22.58
2018-07-26T10:35:29.636Z,23.10
2018-07-26T10:37:59.915Z,24.37
2018-07-26T10:40:29.891Z,23.64
2018-07-26T10:43:04.472Z,23.85
2018-07-26T10:45:34.351Z,22.73
2018-07-26T10:48:04.392Z,22.69
2018-07-26T10:50:34.015Z,22.62
2018-07-26T10:53:04.698Z,22.82
2018-07-26T10:55:35.036Z,23.81
2018-07-26T10:58:05.218Z,23.67
2018-07-26T11:00:36.127Z,22.53
2018-07-26T11:03:08.005Z,23.55
2018-07-26T11:05:37.887Z,23.13
2018-07-26T11:08:09.700Z,24.48
2018-07-26T11:10:39.385Z,23.76
2018-07-26T11:13:09.406Z,23.56
2018-07-26T11:15:39.360Z,24.22
2018-07-26T11:18:09.021Z,24.39
2018-07-26T11:20:40.344Z,24.99
2018-07-26T11:23:12.605Z,24.25
2018-07-26T11:25:42.509Z,25.13
2018-07-26T11:28:12.650Z,25.49
2018-07-26T11:30:45.612Z,26.27
2018-07-26T11:33:15.665Z,25.94
2018-07-26T11:35:45.435Z,25.07
2018-07-26T11:38:15.347Z,25.05
2018-07-26T11:40:45.075Z,24.19
2018-07-26T11:43:14.898Z,24.46
2018-07-26T11:45:44.734Z,24.07
2018-07-26T11:48:14.449Z,23.48
2018-07-26T11:50:44.272Z,24.60
2018-07-26T11:53:14.333Z,25.23
2018-07-26T11:55:47.768Z,25.14
2018-07-26T11:58:22.033Z,25.08
2018-07-26T12:00:52.625Z,26.32
2018-07-26T12:03:24.969Z,25.30
2018-07-26T12:05:54.736Z,24.38
2018-07-26T12:08:24.354Z,25.67
2018-07-26T12:10:54.391Z,23.56
2018-07-26T12:13:24.056Z,24.48
2018-07-26T12:15:53.723Z,24.23
2018-07-26T12:18:23.425Z,23.85
2018-07-26T12:20:53.421Z,25.32
2018-07-26T12:23:23.373Z,24.44
2018-07-26T12:25:53.006Z,23.49
2018-07-26T12:28:23.013Z,24.95
2018-07-26T12:30:52.790Z,24.09
2018-07-26T12:33:22.413Z,25.33
2018-07-26T12:35:52.451Z,24.31
2018-07-26T12:38:22.582Z,25.03
2018-07-26T12:40:52.185Z,24.11
2018-07-26T12:43:21.808Z,23.07
2018-07-26T12:45:51.541Z,23.84
2018-07-26T12:48:21.202Z,23.56
2018-07-26T12:50:50.929Z,23.17
2018-07-26T12:53:23.181Z,23.44
2018-07-26T12:55:53.361Z,23.83
2018-07-26T12:58:25.469Z,23.36
2018-07-26T13:00:58.600Z,23.40
2018-07-26T13:03:28.479Z,24.40
2018-07-26T13:05:58.108Z,24.15
2018-07-26T13:08:27.852Z,24.00
2018-07-26T13:10:57.526Z,23.26
2018-07-26T13:13:27.132Z,24.79
2018-07-26T13:15:57.077Z,23.92
2018-07-26T13:18:27.100Z,24.21
2018-07-26T13:20:57.061Z,24.67
2018-07-26T13:23:26.686Z,24.80
2018-07-26T13:25:56.414Z,24.70
2018-07-26T13:28:26.583Z,23.54
2018-07-26T13:30:56.302Z,23.33
2018-07-26T13:33:26.544Z,23.35
2018-07-26T13:35:56.327Z,24.14
2018-07-26T13:38:26.464Z,23.48
2018-07-26T13:40:56.848Z,24.08
2018-07-26T13:43:27.050Z,23.94
2018-07-26T13:45:56.677Z,24.00
2018-07-26T13:48:26.607Z,23.71
2018-07-26T13:50:56.366Z,23.93
2018-07-26T13:53:25.962Z,24.74
2018-07-26T13:55:55.910Z,24.40
2018-07-26T13:58:25.584Z,23.79
2018-07-26T14:00:55.378Z,23.97
2018-07-26T14:03:25.039Z,23.28
2018-07-26T14:05:54.782Z,24.23
2018-07-26T14:08:24.392Z,24.58
2018-07-26T14:11:00.904Z,23.24
2018-07-26T14:13:30.759Z,24.31
2018-07-26T14:16:00.570Z,24.69
2018-07-26T14:18:30.649Z,24.26
2018-07-26T14:21:00.649Z,24.83
2018-07-26T14:23:35.474Z,24.50
2018-07-26T14:26:05.736Z,23.09
2018-07-26T14:28:35.470Z,23.53
2018-07-26T14:31:06.184Z,23.70
2018-07-26T14:33:36.402Z,22.67
2018-07-26T14:36:06.042Z,22.76
2018-07-26T14:38:36.071Z,22.53
2018-07-26T14:41:06.012Z,23.51
2018-07-26T14:43:38.142Z,23.82
2018-07-26T14:46:13.440Z,23.91
2018-07-26T14:48:45.463Z,23.34
2018-07-26T14:51:15.124Z,23.16
2018-07-26T14:53:44.805Z,23.14
2018-07-26T14:56:14.745Z,23.72
2018-07-26T14:58:44.469Z,24.68
2018-07-26T15:01:14.294Z,23.74
2018-07-26T15:03:44.160Z,23.88
2018-07-26T15:08:56.024Z,24.80
2018-07-26T15:11:25.910Z,24.90
2018-07-26T15:13:55.674Z,23.85
2018-07-26T15:16:25.702Z,23.42
2018-07-26T15:18:55.407Z,24.63
2018-07-26T15:21:25.111Z,24.47
2018-07-26T15:23:54.965Z,25.18
2018-07-26T15:26:24.790Z,25.36
2018-07-26T15:28:54.409Z,23.62
2018-07-26T15:31:24.537Z,23.50
2018-07-26T15:33:54.131Z,23.92
2018-07-26T15:36:23.762Z,24.82
2018-07-26T15:38:53.438Z,23.72
2018-07-26T15:41:24.083Z,23.61
2018-07-26T15:43:53.875Z,24.27
2018-07-26T15:46:23.491Z,24.04
2018-07-26T15:48:53.944Z,24.49
2018-07-26T15:51:23.743Z,24.25
2018-07-26T15:53:53.373Z,23.85
2018-07-26T15:56:23.042Z,24.29
2018-07-26T15:58:52.795Z,23.89
2018-07-26T16:01:25.401Z,23.57
2018-07-26T16:03:56.233Z,24.11
2018-07-26T16:06:29.305Z,23.42
2018-07-26T16:08:58.936Z,22.90
2018-07-26T16:11:28.617Z,24.46
2018-07-26T16:13:58.265Z,23.47
2018-07-26T16:16:28.228Z,24.14
2018-07-26T16:18:58.244Z,24.75
2018-07-26T16:21:28.026Z,23.52
2018-07-26T16:23:57.629Z,23.68
2018-07-26T16:26:30.362Z,24.48
2018-07-26T16:29:02.242Z,24.72
2018-07-26T16:31:32.175Z,23.09
2018-07-26T16:34:01.860Z,23.87
2018-07-26T16:36:32.186Z,23.23
2018-07-26T16:39:02.154Z,24.15
2018-07-26T16:41:31.812Z,23.00
2018-07-26T16:44:01.900Z,23.68
2018-07-26T16:46:32.075Z,22.95
2018-07-26T16:49:01.763Z,23.12
2018-07-26T16:51:31.518Z,24.16
2018-07-26T16:54:01.136Z,24.17
2018-07-26T16:56:30.814Z,22.67
2018-07-26T16:59:00.823Z,23.74
2018-07-26T17:01:30.571Z,24.11
2018-07-26T17:04:00.355Z,22.53
2018-07-26T17:06:30.095Z,23.91
2018-07-26T17:09:00.236Z,23.85
2018-07-26T17:11:30.176Z,23.36
2018-07-26T17:14:00.380Z,23.57
2018-07-26T17:16:30.783Z,23.44
2018-07-26T17:19:04.530Z,23.04
2018-07-26T17:21:34.889Z,24.58
2018-07-26T17:24:04.963Z,24.26
2018-07-26T17:26:37.113Z,23.14
2018-07-26T17:29:07.307Z,22.46
2018-07-26T17:31:37.189Z,22.76
2018-07-26T17:34:07.137Z,23.58
2018-07-26T17:36:37.121Z,22.51
2018-07-26T17:39:10.136Z,23.75
2018-07-26T17:41:40.781Z,22.83
2018-07-26T17:44:10.417Z,22.78
2018-07-26T17:46:40.577Z,23.16
2018-07-26T17:49:10.356Z,24.46
2018-07-26T17:51:40.389Z,23.70
2018-07-26T17:54:10.100Z,24.06
2018-07-26T17:56:39.878Z,24.10
2018-07-26T17:59:09.779Z,25.10
2018-07-26T18:01:39.398Z,25.16
2018-07-26T18:04:09.113Z,25.98
2018-07-26T18:06:39.384Z,25.73
2018-07-26T18:09:10.122Z,24.30
2018-07-26T18:11:39.788Z,24.33
2018-07-26T18:14:09.441Z,24.64
2018-07-26T18:16:39.073Z,24.98
2018-07-26T18:19:08.761Z,26.31
2018-07-26T18:21:38.541Z,26.16
2018-07-26T18:24:08.295Z,25.12
2018-07-26T18:26:37.945Z,26.37
2018-07-26T18:29:07.559Z,26.29
2018-07-26T18:31:37.387Z,25.68
2018-07-26T18:34:07.165Z,26.31
2018-07-26T18:36:36.836Z,27.30
2018-07-26T18:39:12.912Z,26.11
2018-07-26T18:41:43.726Z,26.81
2018-07-26T18:44:13.671Z,26.97
2018-07-26T18:46:43.542Z,27.02
2018-07-26T18:49:13.249Z,27.57
2018-07-26T18:51:43.157Z,26.50
2018-07-26T18:54:12.919Z,26.23
2018-07-26T18:56:42.598Z,26.28
2018-07-26T18:59:12.265Z,27.61
2018-07-26T19:01:43.156Z,26.84
2018-07-26T19:04:17.268Z,26.69
2018-07-26T19:06:52.310Z,26.99
2018-07-26T19:09:23.070Z,27.46
2018-07-26T19:11:52.991Z,26.79
2018-07-26T19:14:23.392Z,28.21
2018-07-26T19:16:53.048Z,27.88
2018-07-26T19:19:22.818Z,28.68
2018-07-26T19:21:52.537Z,27.14
2018-07-26T19:24:22.605Z,27.08
2018-07-26T19:26:52.309Z,27.54
2018-07-26T19:29:22.009Z,27.36
2018-07-26T19:31:51.792Z,28.01
2018-07-26T19:34:21.674Z,29.19
2018-07-26T19:36:51.407Z,29.07
2018-07-26T19:39:21.044Z,28.24
2018-07-26T19:41:50.766Z,29.05
2018-07-26T19:44:20.617Z,28.33
2018-07-26T19:46:50.266Z,28.30
2018-07-26T19:49:20.177Z,29.96
2018-07-26T19:51:49.806Z,29.93
2018-07-26T19:54:19.469Z,30.21
2018-07-26T19:56:49.518Z,30.16
2018-07-26T19:59:19.379Z,29.28
2018-07-26T20:01:49.512Z,30.22
2018-07-26T20:04:19.434Z,30.24
2018-07-26T20:06:49.255Z,29.72
2018-07-26T20:09:19.297Z,29.70
2018-07-26T20:11:49.300Z,29.75
2018-07-26T20:14:19.140Z,29.94
2018-07-26T20:16:48.842Z,31.26
2018-07-26T20:19:18.785Z,30.57
2018-07-26T20:21:48.870Z,31.61
2018-07-26T20:24:18.754Z,30.62
2018-07-26T20:26:48.406Z,30.68
2018-07-26T20:29:18.216Z,31.72
2018-07-26T20:31:47.810Z,31.11
2018-07-26T20:34:17.462Z,31.74
2018-07-26T20:36:47.543Z,32.13
2018-07-26T20:39:17.327Z,31.37
2018-07-26T20:41:47.387Z,32.04
2018-07-26T20:44:17.504Z,32.09
2018-07-26T20:46:47.142Z,31.43
2018-07-26T20:49:17.115Z,31.02
2018-07-26T20:51:46.733Z,31.47
2018-07-26T20:54:16.435Z,32.34
2018-07-26T20:59:30.368Z,32.28
2018-07-26T21:01:59.972Z,31.46
2018-07-26T21:04:29.689Z,31.36
2018-07-26T21:06:59.314Z,31.27
2018-07-26T21:09:29.034Z,32.58
2018-07-26T21:12:03.367Z,32.18
2018-07-26T21:14:36.696Z,31.22
2018-07-26T21:17:10.492Z,32.29
2018-07-26T21:19:44.331Z,32.41
2018-07-26T21:22:15.914Z,32.46
2018-07-26T21:24:47.038Z,31.35
2018-07-26T21:27:20.293Z,32.63
2018-07-26T21:29:52.509Z,31.31
2018-07-26T21:32:26.670Z,31.95
2018-07-26T21:34:59.732Z,31.48
2018-07-26T21:37:32.478Z,32.53
2018-07-26T21:40:06.218Z,32.29
2018-07-26T21:42:39.272Z,32.00
2018-07-26T21:45:11.525Z,32.43
2018-07-26T21:47:44.610Z,32.55
2018-07-26T21:50:18.114Z,32.10
2018-07-26T21:52:51.161Z,32.90
2018-07-26T21:55:22.944Z,32.98
2018-07-26T21:57:54.238Z,33.05
2018-07-26T22:00:39.376Z,32.33
2018-07-26T22:03:13.189Z,32.21
2018-07-26T22:05:46.601Z,33.43
2018-07-26T22:08:20.450Z,33.95
2018-07-26T22:10:54.282Z,34.25
2018-07-26T22:13:24.404Z,33.97
2018-07-26T22:15:54.421Z,34.48
2018-07-26T22:18:24.499Z,35.31
2018-07-26T22:20:54.652Z,35.96
2018-07-26T22:23:24.313Z,37.02
2018-07-26T22:25:54.364Z,37.18
2018-07-26T22:28:24.278Z,37.33
2018-07-26T22:30:54.250Z,37.07
2018-07-26T22:33:23.842Z,36.24
2018-07-26T22:35:53.622Z,35.93
2018-07-26T22:38:23.222Z,36.34
2018-07-26T22:40:52.921Z,36.78
2018-07-26T22:43:22.573Z,35.73
2018-07-26T22:45:52.573Z,35.93
2018-07-26T22:48:22.182Z,35.88
2018-07-26T22:50:51.820Z,37.13
2018-07-26T22:53:21.426Z,36.12
2018-07-26T22:55:51.093Z,36.98
2018-07-26T22:58:22.111Z,36.18
2018-07-26T23:00:52.586Z,36.24
2018-07-26T23:03:22.298Z,37.25
2018-07-26T23:05:51.934Z,36.85
2018-07-26T23:08:21.635Z,37.03
2018-07-26T23:10:51.285Z,36.37
2018-07-26T23:13:20.906Z,37.86
2018-07-26T23:15:50.510Z,38.34
2018-07-26T23:18:20.139Z,38.00
2018-07-26T23:20:49.766Z,37.29
2018-07-26T23:23:19.640Z,37.39
2018-07-26T23:25:49.242Z,36.92
2018-07-26T23:28:18.998Z,37.86
2018-07-26T23:30:48.797Z,36.46
2018-07-26T23:33:18.550Z,36.77
2018-07-26T23:35:48.575Z,36.96
2018-07-26T23:38:18.240Z,35.71
2018-07-26T23:40:47.943Z,36.64
2018-07-26T23:43:18.531Z,35.58
2018-07-26T23:45:54.672Z,36.36
2018-07-26T23:48:24.578Z,35.54
2018-07-26T23:50:54.317Z,35.39
2018-07-26T23:53:23.996Z,35.47
2018-07-26T23:55:54.046Z,35.69
2018-07-26T23:58:24.050Z,35.70
